sensor_id;sensor_type;location;lat;lon;timestamp;temperature;humidity
46676;DHT22;32412;51.478;5.694;2024-03-23T00:55:07;6.90;99.90
46676;DHT22;32412;51.478;5.694;2024-03-23T00:57:35;6.80;99.90
46676;DHT22;32412;51.478;5.694;2024-03-23T01:00:05;6.80;99.90
46676;DHT22;32412;51.478;5.694;2024-03-23T01:02:32;6.80;99.90
46676;DHT22;32412;51.478;5.694;2024-03-23T01:04:58;6.80;99.90
46676;DHT22;32412;51.478;5.694;2024-03-23T01:07:24;6.80;99.90
46676;DHT22;32412;51.478;5.694;2024-03-23T01:09:49;6.80;99.90
46676;DHT22;32412;51.478;5.694;2024-03-23T01:12:15;6.80;99.90
46676;DHT22;32412;51.478;5.694;2024-03-23T01:14:41;6.70;99.90
46676;DHT22;32412;51.478;5.694;2024-03-23T01:17:07;6.70;99.90
46676;DHT22;32412;51.478;5.694;2024-03-23T01:19:32;6.60;99.90
46676;DHT22;32412;51.478;5.694;2024-03-23T01:22:01;6.60;99.90
46676;DHT22;32412;51.478;5.694;2024-03-23T01:24:27;6.70;99.90
46676;DHT22;32412;51.478;5.694;2024-03-23T01:26:55;6.70;99.90
46676;DHT22;32412;51.478;5.694;2024-03-23T01:29:21;6.70;99.90
46676;DHT22;32412;51.478;5.694;2024-03-23T01:31:46;6.60;99.90
46676;DHT22;32412;51.478;5.694;2024-03-23T01:34:19;6.70;99.90
46676;DHT22;32412;51.478;5.694;2024-03-23T01:36:46;6.60;99.90
46676;DHT22;32412;51.478;5.694;2024-03-23T01:39:12;6.60;99.90
46676;DHT22;32412;51.478;5.694;2024-03-23T01:41:39;6.60;99.90
46676;DHT22;32412;51.478;5.694;2024-03-23T01:44:08;6.50;99.90
46676;DHT22;32412;51.478;5.694;2024-03-23T01:46:44;6.50;99.90
46676;DHT22;32412;51.478;5.694;2024-03-23T01:49:15;6.50;99.90
46676;DHT22;32412;51.478;5.694;2024-03-23T01:51:41;6.50;99.90
46676;DHT22;32412;51.478;5.694;2024-03-23T01:54:13;6.50;99.90
46676;DHT22;32412;51.478;5.694;2024-03-23T01:56:39;6.50;99.90
46676;DHT22;32412;51.478;5.694;2024-03-23T01:59:09;6.40;99.90
46676;DHT22;32412;51.478;5.694;2024-03-23T02:01:35;6.40;99.90
46676;DHT22;32412;51.478;5.694;2024-03-23T02:04:09;6.50;99.90
46676;DHT22;32412;51.478;5.694;2024-03-23T02:06:40;6.50;99.90
46676;DHT22;32412;51.478;5.694;2024-03-23T02:09:12;6.50;99.90
46676;DHT22;32412;51.478;5.694;2024-03-23T02:11:39;6.40;99.90
46676;DHT22;32412;51.478;5.694;2024-03-23T02:14:07;6.40;99.90
46676;DHT22;32412;51.478;5.694;2024-03-23T02:16:33;6.50;99.90
46676;DHT22;32412;51.478;5.694;2024-03-23T02:18:59;6.50;99.90
46676;DHT22;32412;51.478;5.694;2024-03-23T02:21:27;6.40;99.90
46676;DHT22;32412;51.478;5.694;2024-03-23T02:23:53;6.40;99.90
46676;DHT22;32412;51.478;5.694;2024-03-23T02:26:18;6.40;99.90
46676;DHT22;32412;51.478;5.694;2024-03-23T02:28:44;6.40;99.90
46676;DHT22;32412;51.478;5.694;2024-03-23T02:31:10;6.40;99.90
46676;DHT22;32412;51.478;5.694;2024-03-23T02:33:36;6.40;99.90
46676;DHT22;32412;51.478;5.694;2024-03-23T02:36:03;6.30;99.90
46676;DHT22;32412;51.478;5.694;2024-03-23T02:38:29;6.30;99.90
46676;DHT22;32412;51.478;5.694;2024-03-23T02:41:00;6.30;99.90
46676;DHT22;32412;51.478;5.694;2024-03-23T02:43:26;6.30;99.90
46676;DHT22;32412;51.478;5.694;2024-03-23T02:45:52;6.30;99.90
46676;DHT22;32412;51.478;5.694;2024-03-23T02:48:17;6.30;99.90
46676;DHT22;32412;51.478;5.694;2024-03-23T02:50:43;6.30;99.90
46676;DHT22;32412;51.478;5.694;2024-03-23T02:53:09;6.30;99.90
46676;DHT22;32412;51.478;5.694;2024-03-23T02:55:34;6.30;99.90
46676;DHT22;32412;51.478;5.694;2024-03-23T02:58:01;6.30;99.90
46676;DHT22;32412;51.478;5.694;2024-03-23T03:00:29;6.30;99.90
46676;DHT22;32412;51.478;5.694;2024-03-23T03:02:58;6.30;99.90
46676;DHT22;32412;51.478;5.694;2024-03-23T03:05:26;6.20;99.90
46676;DHT22;32412;51.478;5.694;2024-03-23T03:07:51;6.20;99.90
46676;DHT22;32412;51.478;5.694;2024-03-23T03:10:17;6.20;99.90
46676;DHT22;32412;51.478;5.694;2024-03-23T03:12:43;6.30;99.90
46676;DHT22;32412;51.478;5.694;2024-03-23T03:15:08;6.20;99.90
46676;DHT22;32412;51.478;5.694;2024-03-23T03:17:34;6.20;99.90
46676;DHT22;32412;51.478;5.694;2024-03-23T03:20:00;6.20;99.90
46676;DHT22;32412;51.478;5.694;2024-03-23T03:22:26;6.20;99.90
46676;DHT22;32412;51.478;5.694;2024-03-23T03:24:51;6.20;99.90
46676;DHT22;32412;51.478;5.694;2024-03-23T03:27:17;6.20;99.90
46676;DHT22;32412;51.478;5.694;2024-03-23T03:29:43;6.10;99.90
46676;DHT22;32412;51.478;5.694;2024-03-23T03:32:08;6.10;99.90
46676;DHT22;32412;51.478;5.694;2024-03-23T03:34:34;6.10;99.90
46676;DHT22;32412;51.478;5.694;2024-03-23T03:37:00;6.10;99.90
46676;DHT22;32412;51.478;5.694;2024-03-23T03:39:25;6.10;99.90
46676;DHT22;32412;51.478;5.694;2024-03-23T03:41:51;6.10;99.90
46676;DHT22;32412;51.478;5.694;2024-03-23T03:44:17;6.10;99.90
46676;DHT22;32412;51.478;5.694;2024-03-23T03:46:43;6.10;99.90
46676;DHT22;32412;51.478;5.694;2024-03-23T03:49:09;6.10;99.90
46676;DHT22;32412;51.478;5.694;2024-03-23T03:51:35;6.00;99.90
46676;DHT22;32412;51.478;5.694;2024-03-23T03:54:00;6.00;99.90
46676;DHT22;32412;51.478;5.694;2024-03-23T03:56:26;6.00;99.90
46676;DHT22;32412;51.478;5.694;2024-03-23T03:58:53;6.00;99.90
46676;DHT22;32412;51.478;5.694;2024-03-23T04:01:18;6.00;99.90
46676;DHT22;32412;51.478;5.694;2024-03-23T04:03:45;5.90;99.90
46676;DHT22;32412;51.478;5.694;2024-03-23T04:06:10;5.90;99.90
46676;DHT22;32412;51.478;5.694;2024-03-23T04:08:38;5.80;99.90
46676;DHT22;32412;51.478;5.694;2024-03-23T04:11:04;5.80;99.90
46676;DHT22;32412;51.478;5.694;2024-03-23T04:13:30;5.80;99.90
46676;DHT22;32412;51.478;5.694;2024-03-23T04:15:56;5.70;99.90
46676;DHT22;32412;51.478;5.694;2024-03-23T04:18:22;5.70;99.90
46676;DHT22;32412;51.478;5.694;2024-03-23T04:20:48;5.70;99.90
46676;DHT22;32412;51.478;5.694;2024-03-23T04:23:14;5.60;99.90
46676;DHT22;32412;51.478;5.694;2024-03-23T04:25:40;5.60;99.90
46676;DHT22;32412;51.478;5.694;2024-03-23T04:28:05;5.50;99.90
46676;DHT22;32412;51.478;5.694;2024-03-23T04:30:32;5.40;99.90
46676;DHT22;32412;51.478;5.694;2024-03-23T04:32:58;5.40;99.90
46676;DHT22;32412;51.478;5.694;2024-03-23T04:35:24;5.40;99.90
46676;DHT22;32412;51.478;5.694;2024-03-23T04:37:56;5.30;99.90
46676;DHT22;32412;51.478;5.694;2024-03-23T04:40:24;5.20;99.90
46676;DHT22;32412;51.478;5.694;2024-03-23T04:42:49;5.20;99.90
46676;DHT22;32412;51.478;5.694;2024-03-23T04:45:15;5.20;99.90
46676;DHT22;32412;51.478;5.694;2024-03-23T04:47:41;5.10;99.90
46676;DHT22;32412;51.478;5.694;2024-03-23T04:50:07;5.10;99.90
46676;DHT22;32412;51.478;5.694;2024-03-23T04:52:32;5.10;99.90
46676;DHT22;32412;51.478;5.694;2024-03-23T04:54:58;5.00;99.90
46676;DHT22;32412;51.478;5.694;2024-03-23T04:57:24;4.90;99.90
46676;DHT22;32412;51.478;5.694;2024-03-23T04:59:49;4.90;99.90
46676;DHT22;32412;51.478;5.694;2024-03-23T05:02:15;4.90;99.90
46676;DHT22;32412;51.478;5.694;2024-03-23T05:04:41;4.90;99.90
46676;DHT22;32412;51.478;5.694;2024-03-23T05:07:07;4.90;99.90
46676;DHT22;32412;51.478;5.694;2024-03-23T05:09:33;4.90;99.90
46676;DHT22;32412;51.478;5.694;2024-03-23T05:12:02;4.90;99.90
46676;DHT22;32412;51.478;5.694;2024-03-23T05:14:28;4.90;99.90
46676;DHT22;32412;51.478;5.694;2024-03-23T05:16:54;4.90;99.90
46676;DHT22;32412;51.478;5.694;2024-03-23T05:19:19;4.80;99.90
46676;DHT22;32412;51.478;5.694;2024-03-23T05:21:45;4.80;99.90
46676;DHT22;32412;51.478;5.694;2024-03-23T05:24:13;4.80;99.90
46676;DHT22;32412;51.478;5.694;2024-03-23T05:26:39;4.90;99.90
46676;DHT22;32412;51.478;5.694;2024-03-23T05:29:04;4.80;99.90
46676;DHT22;32412;51.478;5.694;2024-03-23T05:31:32;4.80;99.90
46676;DHT22;32412;51.478;5.694;2024-03-23T05:33:58;4.80;99.90
46676;DHT22;32412;51.478;5.694;2024-03-23T05:36:23;4.80;99.90
46676;DHT22;32412;51.478;5.694;2024-03-23T05:38:50;4.80;99.90
46676;DHT22;32412;51.478;5.694;2024-03-23T05:41:18;4.70;99.90
46676;DHT22;32412;51.478;5.694;2024-03-23T05:43:47;4.70;99.90
46676;DHT22;32412;51.478;5.694;2024-03-23T05:46:12;4.70;99.90
46676;DHT22;32412;51.478;5.694;2024-03-23T05:48:38;4.70;99.90
46676;DHT22;32412;51.478;5.694;2024-03-23T05:51:03;4.70;99.90
46676;DHT22;32412;51.478;5.694;2024-03-23T05:53:29;4.80;99.90
46676;DHT22;32412;51.478;5.694;2024-03-23T05:56:03;4.80;99.90
46676;DHT22;32412;51.478;5.694;2024-03-23T05:58:32;4.80;99.90
46676;DHT22;32412;51.478;5.694;2024-03-23T06:00:59;4.80;99.90
46676;DHT22;32412;51.478;5.694;2024-03-23T06:03:27;4.90;99.90
46676;DHT22;32412;51.478;5.694;2024-03-23T06:05:52;5.00;99.90
46676;DHT22;32412;51.478;5.694;2024-03-23T06:08:18;5.00;99.90
46676;DHT22;32412;51.478;5.694;2024-03-23T06:10:45;5.00;99.90
46676;DHT22;32412;51.478;5.694;2024-03-23T06:13:11;5.10;99.90
46676;DHT22;32412;51.478;5.694;2024-03-23T06:15:37;5.10;99.90
46676;DHT22;32412;51.478;5.694;2024-03-23T06:18:03;5.10;99.90
46676;DHT22;32412;51.478;5.694;2024-03-23T06:20:30;5.10;99.90
46676;DHT22;32412;51.478;5.694;2024-03-23T06:22:59;5.20;99.90
46676;DHT22;32412;51.478;5.694;2024-03-23T06:25:24;5.20;99.90
46676;DHT22;32412;51.478;5.694;2024-03-23T06:27:50;5.20;99.90
46676;DHT22;32412;51.478;5.694;2024-03-23T06:30:16;5.30;99.90
46676;DHT22;32412;51.478;5.694;2024-03-23T06:32:42;5.30;99.90
46676;DHT22;32412;51.478;5.694;2024-03-23T06:35:08;5.30;99.90
46676;DHT22;32412;51.478;5.694;2024-03-23T06:37:36;5.40;99.90
46676;DHT22;32412;51.478;5.694;2024-03-23T06:40:01;5.50;99.90
46676;DHT22;32412;51.478;5.694;2024-03-23T06:42:27;5.60;99.90
46676;DHT22;32412;51.478;5.694;2024-03-23T06:44:53;5.90;99.90
46676;DHT22;32412;51.478;5.694;2024-03-23T06:47:19;6.10;99.90
46676;DHT22;32412;51.478;5.694;2024-03-23T06:49:44;6.20;99.90
46676;DHT22;32412;51.478;5.694;2024-03-23T06:52:10;6.40;99.90
46676;DHT22;32412;51.478;5.694;2024-03-23T06:54:36;6.50;99.90
46676;DHT22;32412;51.478;5.694;2024-03-23T06:57:01;6.40;99.90
46676;DHT22;32412;51.478;5.694;2024-03-23T06:59:27;6.30;99.90
46676;DHT22;32412;51.478;5.694;2024-03-23T07:01:52;6.30;99.90
46676;DHT22;32412;51.478;5.694;2024-03-23T07:04:18;6.20;99.90
46676;DHT22;32412;51.478;5.694;2024-03-23T07:06:44;6.20;99.90
46676;DHT22;32412;51.478;5.694;2024-03-23T07:09:10;6.30;99.90
46676;DHT22;32412;51.478;5.694;2024-03-23T07:11:36;6.40;99.90
46676;DHT22;32412;51.478;5.694;2024-03-23T07:14:02;6.40;99.90
46676;DHT22;32412;51.478;5.694;2024-03-23T07:20:03;6.30;99.90
46676;DHT22;32412;51.478;5.694;2024-03-23T07:22:32;6.10;99.90
46676;DHT22;32412;51.478;5.694;2024-03-23T07:25:00;6.00;99.90
46676;DHT22;32412;51.478;5.694;2024-03-23T07:27:31;6.00;99.90
46676;DHT22;32412;51.478;5.694;2024-03-23T07:29:56;6.00;99.90
46676;DHT22;32412;51.478;5.694;2024-03-23T07:32:22;6.00;99.90
46676;DHT22;32412;51.478;5.694;2024-03-23T07:34:47;6.30;99.90
46676;DHT22;32412;51.478;5.694;2024-03-23T07:37:13;6.60;99.90
46676;DHT22;32412;51.478;5.694;2024-03-23T07:39:39;6.90;99.90
46676;DHT22;32412;51.478;5.694;2024-03-23T07:42:06;7.00;99.90
46676;DHT22;32412;51.478;5.694;2024-03-23T07:44:34;7.00;99.90
46676;DHT22;32412;51.478;5.694;2024-03-23T07:47:05;6.90;99.90
46676;DHT22;32412;51.478;5.694;2024-03-23T07:49:56;6.80;99.90
46676;DHT22;32412;51.478;5.694;2024-03-23T07:52:22;6.80;99.90
46676;DHT22;32412;51.478;5.694;2024-03-23T07:54:47;6.80;99.90
46676;DHT22;32412;51.478;5.694;2024-03-23T07:57:13;6.90;99.90
46676;DHT22;32412;51.478;5.694;2024-03-23T07:59:38;6.90;99.90
46676;DHT22;32412;51.478;5.694;2024-03-23T08:02:12;7.00;99.90
46676;DHT22;32412;51.478;5.694;2024-03-23T08:08:05;7.20;99.90
46676;DHT22;32412;51.478;5.694;2024-03-23T08:10:33;7.40;99.90
46676;DHT22;32412;51.478;5.694;2024-03-23T08:13:00;7.40;99.90
46676;DHT22;32412;51.478;5.694;2024-03-23T08:15:25;7.40;99.90
46676;DHT22;32412;51.478;5.694;2024-03-23T08:17:51;7.60;99.90
46676;DHT22;32412;51.478;5.694;2024-03-23T08:20:16;7.80;99.90
46676;DHT22;32412;51.478;5.694;2024-03-23T08:22:42;7.80;99.90
46676;DHT22;32412;51.478;5.694;2024-03-23T08:25:08;7.90;99.90
46676;DHT22;32412;51.478;5.694;2024-03-23T08:27:33;7.90;99.90
46676;DHT22;32412;51.478;5.694;2024-03-23T08:29:59;8.10;99.90
46676;DHT22;32412;51.478;5.694;2024-03-23T08:32:25;8.20;99.90
46676;DHT22;32412;51.478;5.694;2024-03-23T08:34:50;8.30;99.90
46676;DHT22;32412;51.478;5.694;2024-03-23T08:37:16;8.30;99.90
46676;DHT22;32412;51.478;5.694;2024-03-23T08:39:44;8.40;99.90
46676;DHT22;32412;51.478;5.694;2024-03-23T08:42:10;8.60;99.90
46676;DHT22;32412;51.478;5.694;2024-03-23T08:44:36;8.90;99.90
46676;DHT22;32412;51.478;5.694;2024-03-23T08:47:02;8.90;99.90
46676;DHT22;32412;51.478;5.694;2024-03-23T08:49:27;8.70;99.90
46676;DHT22;32412;51.478;5.694;2024-03-23T08:51:53;8.60;99.90
46676;DHT22;32412;51.478;5.694;2024-03-23T08:54:20;8.70;99.90
46676;DHT22;32412;51.478;5.694;2024-03-23T08:56:47;8.70;99.90
46676;DHT22;32412;51.478;5.694;2024-03-23T08:59:13;8.80;99.90
46676;DHT22;32412;51.478;5.694;2024-03-23T09:01:38;8.90;99.90
46676;DHT22;32412;51.478;5.694;2024-03-23T09:04:04;8.80;99.90
46676;DHT22;32412;51.478;5.694;2024-03-23T09:06:29;8.50;99.90
46676;DHT22;32412;51.478;5.694;2024-03-23T09:08:55;8.30;99.90
46676;DHT22;32412;51.478;5.694;2024-03-23T09:11:21;8.20;99.90
46676;DHT22;32412;51.478;5.694;2024-03-23T09:13:47;8.20;99.90
46676;DHT22;32412;51.478;5.694;2024-03-23T09:16:12;8.20;99.90
46676;DHT22;32412;51.478;5.694;2024-03-23T09:18:38;8.10;99.90
46676;DHT22;32412;51.478;5.694;2024-03-23T09:21:11;7.90;99.90
46676;DHT22;32412;51.478;5.694;2024-03-23T09:23:38;7.50;99.90
46676;DHT22;32412;51.478;5.694;2024-03-23T09:26:04;6.70;99.90
46676;DHT22;32412;51.478;5.694;2024-03-23T09:28:30;5.80;99.90
46676;DHT22;32412;51.478;5.694;2024-03-23T09:31:05;5.30;99.90
46676;DHT22;32412;51.478;5.694;2024-03-23T09:33:31;5.20;99.90
46676;DHT22;32412;51.478;5.694;2024-03-23T09:35:56;5.20;99.90
46676;DHT22;32412;51.478;5.694;2024-03-23T09:38:25;5.60;99.90
46676;DHT22;32412;51.478;5.694;2024-03-23T09:40:53;6.10;99.90
46676;DHT22;32412;51.478;5.694;2024-03-23T09:43:19;6.70;99.90
46676;DHT22;32412;51.478;5.694;2024-03-23T09:45:45;7.50;99.90
46676;DHT22;32412;51.478;5.694;2024-03-23T09:48:12;7.80;99.90
46676;DHT22;32412;51.478;5.694;2024-03-23T09:50:38;7.60;99.90
46676;DHT22;32412;51.478;5.694;2024-03-23T09:53:06;7.70;99.90
46676;DHT22;32412;51.478;5.694;2024-03-23T09:55:35;7.70;99.90
46676;DHT22;32412;51.478;5.694;2024-03-23T09:58:02;7.90;99.90
46676;DHT22;32412;51.478;5.694;2024-03-23T10:00:28;8.90;99.90
46676;DHT22;32412;51.478;5.694;2024-03-23T10:02:58;9.60;99.90
46676;DHT22;32412;51.478;5.694;2024-03-23T10:05:27;10.50;99.90
46676;DHT22;32412;51.478;5.694;2024-03-23T10:07:53;11.20;99.90
46676;DHT22;32412;51.478;5.694;2024-03-23T10:10:19;11.90;99.90
46676;DHT22;32412;51.478;5.694;2024-03-23T10:12:50;11.90;99.90
46676;DHT22;32412;51.478;5.694;2024-03-23T10:15:27;12.30;99.60
46676;DHT22;32412;51.478;5.694;2024-03-23T10:17:53;12.70;98.10
46676;DHT22;32412;51.478;5.694;2024-03-23T10:20:20;12.50;96.80
46676;DHT22;32412;51.478;5.694;2024-03-23T10:23:06;12.40;99.90
46676;DHT22;32412;51.478;5.694;2024-03-23T10:25:41;11.80;98.20
46676;DHT22;32412;51.478;5.694;2024-03-23T10:28:06;10.60;99.60
46676;DHT22;32412;51.478;5.694;2024-03-23T10:30:32;9.50;99.90
46676;DHT22;32412;51.478;5.694;2024-03-23T10:33:10;8.70;99.90
46676;DHT22;32412;51.478;5.694;2024-03-23T10:35:39;8.10;99.90
46676;DHT22;32412;51.478;5.694;2024-03-23T10:38:06;7.60;99.90
46676;DHT22;32412;51.478;5.694;2024-03-23T10:40:35;7.30;99.90
46676;DHT22;32412;51.478;5.694;2024-03-23T10:43:01;7.20;99.90
46676;DHT22;32412;51.478;5.694;2024-03-23T10:45:28;8.40;99.90
46676;DHT22;32412;51.478;5.694;2024-03-23T10:47:54;9.90;99.00
46676;DHT22;32412;51.478;5.694;2024-03-23T10:50:19;11.10;97.90
46676;DHT22;32412;51.478;5.694;2024-03-23T10:52:47;12.10;95.60
46676;DHT22;32412;51.478;5.694;2024-03-23T10:55:19;12.70;93.90
46676;DHT22;32412;51.478;5.694;2024-03-23T10:57:56;13.10;92.80
46676;DHT22;32412;51.478;5.694;2024-03-23T11:00:24;13.30;90.00
46676;DHT22;32412;51.478;5.694;2024-03-23T11:02:50;13.30;87.70
46676;DHT22;32412;51.478;5.694;2024-03-23T11:05:28;13.20;89.40
46676;DHT22;32412;51.478;5.694;2024-03-23T11:07:53;13.50;90.50
46676;DHT22;32412;51.478;5.694;2024-03-23T11:10:31;14.10;88.50
46676;DHT22;32412;51.478;5.694;2024-03-23T11:13:21;14.30;83.10
46676;DHT22;32412;51.478;5.694;2024-03-23T11:15:47;13.80;83.90
46676;DHT22;32412;51.478;5.694;2024-03-23T11:18:20;13.80;85.10
46676;DHT22;32412;51.478;5.694;2024-03-23T11:20:46;13.20;83.30
46676;DHT22;32412;51.478;5.694;2024-03-23T11:23:27;13.20;88.70
46676;DHT22;32412;51.478;5.694;2024-03-23T11:25:53;14.30;85.60
46676;DHT22;32412;51.478;5.694;2024-03-23T11:28:19;14.20;82.20
46676;DHT22;32412;51.478;5.694;2024-03-23T11:30:44;12.80;84.40
46676;DHT22;32412;51.478;5.694;2024-03-23T11:33:10;11.60;91.70
46676;DHT22;32412;51.478;5.694;2024-03-23T11:35:39;11.60;93.60
46676;DHT22;32412;51.478;5.694;2024-03-23T11:38:16;12.80;90.50
46676;DHT22;32412;51.478;5.694;2024-03-23T11:40:48;14.10;85.20
46676;DHT22;32412;51.478;5.694;2024-03-23T11:43:18;13.90;87.60
46676;DHT22;32412;51.478;5.694;2024-03-23T11:45:51;13.20;83.30
46676;DHT22;32412;51.478;5.694;2024-03-23T11:48:21;13.70;81.40
46676;DHT22;32412;51.478;5.694;2024-03-23T11:50:49;14.40;80.50
46676;DHT22;32412;51.478;5.694;2024-03-23T11:55:52;13.60;72.90
46676;DHT22;32412;51.478;5.694;2024-03-23T11:58:20;13.10;74.60
46676;DHT22;32412;51.478;5.694;2024-03-23T12:01:00;13.00;78.10
46676;DHT22;32412;51.478;5.694;2024-03-23T12:03:31;12.40;79.80
46676;DHT22;32412;51.478;5.694;2024-03-23T12:09:20;10.50;86.40
46676;DHT22;32412;51.478;5.694;2024-03-23T12:11:46;10.20;87.60
46676;DHT22;32412;51.478;5.694;2024-03-23T12:14:15;10.20;87.40
46676;DHT22;32412;51.478;5.694;2024-03-23T12:16:40;9.70;85.30
46676;DHT22;32412;51.478;5.694;2024-03-23T12:19:06;9.10;88.00
46676;DHT22;32412;51.478;5.694;2024-03-23T12:21:32;8.80;90.00
46676;DHT22;32412;51.478;5.694;2024-03-23T12:23:58;8.50;91.20
46676;DHT22;32412;51.478;5.694;2024-03-23T12:26:24;8.50;92.20
46676;DHT22;32412;51.478;5.694;2024-03-23T12:28:49;8.30;93.70
46676;DHT22;32412;51.478;5.694;2024-03-23T12:31:15;8.20;95.10
46676;DHT22;32412;51.478;5.694;2024-03-23T12:33:40;8.00;96.00
46676;DHT22;32412;51.478;5.694;2024-03-23T12:36:06;8.10;96.90
46676;DHT22;32412;51.478;5.694;2024-03-23T12:38:32;8.70;97.40
46676;DHT22;32412;51.478;5.694;2024-03-23T12:40:57;10.40;94.70
46676;DHT22;32412;51.478;5.694;2024-03-23T12:43:23;11.20;91.40
46676;DHT22;32412;51.478;5.694;2024-03-23T12:45:49;11.70;90.60
46676;DHT22;32412;51.478;5.694;2024-03-23T12:48:15;11.90;89.40
46676;DHT22;32412;51.478;5.694;2024-03-23T12:50:41;12.20;87.80
46676;DHT22;32412;51.478;5.694;2024-03-23T12:53:07;11.90;85.20
46676;DHT22;32412;51.478;5.694;2024-03-23T12:55:34;11.50;89.70
46676;DHT22;32412;51.478;5.694;2024-03-23T12:58:00;10.60;90.20
46676;DHT22;32412;51.478;5.694;2024-03-23T13:00:26;10.20;92.20
46676;DHT22;32412;51.478;5.694;2024-03-23T13:02:52;10.20;92.90
46676;DHT22;32412;51.478;5.694;2024-03-23T13:05:17;10.60;93.50
46676;DHT22;32412;51.478;5.694;2024-03-23T13:07:43;10.40;92.20
46676;DHT22;32412;51.478;5.694;2024-03-23T13:10:09;10.30;92.70
46676;DHT22;32412;51.478;5.694;2024-03-23T13:12:37;10.00;91.40
46676;DHT22;32412;51.478;5.694;2024-03-23T13:15:03;9.60;91.50
46676;DHT22;32412;51.478;5.694;2024-03-23T13:17:29;9.40;91.80
46676;DHT22;32412;51.478;5.694;2024-03-23T13:19:55;9.50;91.50
46676;DHT22;32412;51.478;5.694;2024-03-23T13:22:21;9.40;90.90
46676;DHT22;32412;51.478;5.694;2024-03-23T13:25:06;9.70;90.80
46676;DHT22;32412;51.478;5.694;2024-03-23T13:27:32;10.60;86.10
46676;DHT22;32412;51.478;5.694;2024-03-23T13:29:57;11.20;85.70
46676;DHT22;32412;51.478;5.694;2024-03-23T13:32:23;11.30;85.20
46676;DHT22;32412;51.478;5.694;2024-03-23T13:34:49;11.40;82.00
46676;DHT22;32412;51.478;5.694;2024-03-23T13:37:17;11.30;84.10
46676;DHT22;32412;51.478;5.694;2024-03-23T13:39:43;11.00;82.50
46676;DHT22;32412;51.478;5.694;2024-03-23T13:42:09;10.70;86.40
46676;DHT22;32412;51.478;5.694;2024-03-23T13:44:34;10.60;90.00
46676;DHT22;32412;51.478;5.694;2024-03-23T13:47:00;10.30;90.00
46676;DHT22;32412;51.478;5.694;2024-03-23T13:49:29;10.10;91.40
46676;DHT22;32412;51.478;5.694;2024-03-23T13:51:57;9.90;91.90
46676;DHT22;32412;51.478;5.694;2024-03-23T13:54:27;10.30;91.50
46676;DHT22;32412;51.478;5.694;2024-03-23T13:56:54;10.60;89.70
46676;DHT22;32412;51.478;5.694;2024-03-23T13:59:20;11.50;85.10
46676;DHT22;32412;51.478;5.694;2024-03-23T14:01:48;12.00;83.80
46676;DHT22;32412;51.478;5.694;2024-03-23T14:04:14;12.30;80.40
46676;DHT22;32412;51.478;5.694;2024-03-23T14:06:42;12.10;79.90
46676;DHT22;32412;51.478;5.694;2024-03-23T14:09:10;11.20;81.70
46676;DHT22;32412;51.478;5.694;2024-03-23T14:11:36;10.40;86.90
46676;DHT22;32412;51.478;5.694;2024-03-23T14:14:03;10.00;89.10
46676;DHT22;32412;51.478;5.694;2024-03-23T14:16:32;9.60;90.50
46676;DHT22;32412;51.478;5.694;2024-03-23T14:18:58;9.20;91.50
46676;DHT22;32412;51.478;5.694;2024-03-23T14:21:24;9.20;93.20
46676;DHT22;32412;51.478;5.694;2024-03-23T14:23:50;9.70;93.70
46676;DHT22;32412;51.478;5.694;2024-03-23T14:26:16;10.30;92.10
46676;DHT22;32412;51.478;5.694;2024-03-23T14:28:41;10.40;90.70
46676;DHT22;32412;51.478;5.694;2024-03-23T14:31:07;10.60;90.90
46676;DHT22;32412;51.478;5.694;2024-03-23T14:33:38;10.50;91.70
46676;DHT22;32412;51.478;5.694;2024-03-23T14:36:07;10.80;92.70
46676;DHT22;32412;51.478;5.694;2024-03-23T14:41:57;11.70;89.90
46676;DHT22;32412;51.478;5.694;2024-03-23T14:54:16;11.50;90.80
46676;DHT22;32412;51.478;5.694;2024-03-23T15:00:06;11.90;88.00
46676;DHT22;32412;51.478;5.694;2024-03-23T15:02:31;12.10;87.10
46676;DHT22;32412;51.478;5.694;2024-03-23T15:04:58;12.10;88.30
46676;DHT22;32412;51.478;5.694;2024-03-23T15:07:24;12.20;86.40
46676;DHT22;32412;51.478;5.694;2024-03-23T15:09:50;11.90;87.50
46676;DHT22;32412;51.478;5.694;2024-03-23T15:12:15;12.00;87.10
46676;DHT22;32412;51.478;5.694;2024-03-23T15:14:41;12.00;87.70
46676;DHT22;32412;51.478;5.694;2024-03-23T15:17:07;11.80;86.80
46676;DHT22;32412;51.478;5.694;2024-03-23T15:19:34;11.90;87.10
46676;DHT22;32412;51.478;5.694;2024-03-23T15:22:00;12.10;87.20
46676;DHT22;32412;51.478;5.694;2024-03-23T15:24:25;12.40;85.50
46676;DHT22;32412;51.478;5.694;2024-03-23T15:26:51;12.20;86.50
46676;DHT22;32412;51.478;5.694;2024-03-23T15:29:17;11.90;87.30
46676;DHT22;32412;51.478;5.694;2024-03-23T15:31:43;10.80;86.30
46676;DHT22;32412;51.478;5.694;2024-03-23T15:34:10;10.00;89.50
46676;DHT22;32412;51.478;5.694;2024-03-23T15:36:39;9.30;92.40
46676;DHT22;32412;51.478;5.694;2024-03-23T15:39:24;8.90;94.00
46676;DHT22;32412;51.478;5.694;2024-03-23T15:41:50;8.50;94.60
46676;DHT22;32412;51.478;5.694;2024-03-23T15:44:16;8.20;95.80
46676;DHT22;32412;51.478;5.694;2024-03-23T15:46:41;8.10;97.10
46676;DHT22;32412;51.478;5.694;2024-03-23T15:49:07;7.90;98.60
46676;DHT22;32412;51.478;5.694;2024-03-23T15:51:33;7.80;99.90
46676;DHT22;32412;51.478;5.694;2024-03-23T15:54:00;7.60;99.90
46676;DHT22;32412;51.478;5.694;2024-03-23T15:56:26;7.20;99.90
46676;DHT22;32412;51.478;5.694;2024-03-23T15:58:52;6.90;99.90
46676;DHT22;32412;51.478;5.694;2024-03-23T16:01:18;6.40;99.90
46676;DHT22;32412;51.478;5.694;2024-03-23T16:03:43;6.10;99.90
46676;DHT22;32412;51.478;5.694;2024-03-23T16:06:09;5.80;99.90
46676;DHT22;32412;51.478;5.694;2024-03-23T16:08:35;5.70;99.90
46676;DHT22;32412;51.478;5.694;2024-03-23T16:11:02;5.60;99.90
46676;DHT22;32412;51.478;5.694;2024-03-23T16:13:28;5.50;99.90
46676;DHT22;32412;51.478;5.694;2024-03-23T16:15:55;5.40;99.90
46676;DHT22;32412;51.478;5.694;2024-03-23T16:18:21;5.40;99.90
46676;DHT22;32412;51.478;5.694;2024-03-23T16:21:03;5.40;99.90
46676;DHT22;32412;51.478;5.694;2024-03-23T16:23:31;5.40;99.90
46676;DHT22;32412;51.478;5.694;2024-03-23T16:25:56;5.30;99.90
46676;DHT22;32412;51.478;5.694;2024-03-23T16:28:26;5.30;99.90
46676;DHT22;32412;51.478;5.694;2024-03-23T16:31:00;5.20;99.90
46676;DHT22;32412;51.478;5.694;2024-03-23T16:33:26;5.10;99.90
46676;DHT22;32412;51.478;5.694;2024-03-23T16:36:09;5.10;99.90
46676;DHT22;32412;51.478;5.694;2024-03-23T16:38:36;5.00;99.90
46676;DHT22;32412;51.478;5.694;2024-03-23T16:41:03;5.00;99.90
46676;DHT22;32412;51.478;5.694;2024-03-23T16:43:30;5.10;99.90
46676;DHT22;32412;51.478;5.694;2024-03-23T16:48:27;5.20;99.90
46676;DHT22;32412;51.478;5.694;2024-03-23T16:50:55;5.30;99.90
46676;DHT22;32412;51.478;5.694;2024-03-23T16:53:21;5.40;99.90
46676;DHT22;32412;51.478;5.694;2024-03-23T16:55:57;5.40;99.90
46676;DHT22;32412;51.478;5.694;2024-03-23T16:58:27;5.40;99.90
46676;DHT22;32412;51.478;5.694;2024-03-23T17:00:53;5.30;99.90
46676;DHT22;32412;51.478;5.694;2024-03-23T17:03:22;5.70;99.90
46676;DHT22;32412;51.478;5.694;2024-03-23T17:05:48;5.90;99.90
46676;DHT22;32412;51.478;5.694;2024-03-23T17:08:14;5.80;99.90